sensor_id;sensor_type;location;lat;lon;timestamp;P1;durP1;ratioP1;P2;durP2;ratioP2
75628;SDS011;64213;46.452;16.994;2022-11-02T00:02:06;32.80;;;15.25;;
75628;SDS011;64213;46.452;16.994;2022-11-02T00:05:10;32.75;;;15.75;;
75628;SDS011;64213;46.452;16.994;2022-11-02T00:08:13;33.90;;;16.20;;
75628;SDS011;64213;46.452;16.994;2022-11-02T00:11:15;35.38;;;15.32;;
75628;SDS011;64213;46.452;16.994;2022-11-02T00:14:17;32.78;;;16.67;;
75628;SDS011;64213;46.452;16.994;2022-11-02T00:17:19;37.40;;;16.40;;
75628;SDS011;64213;46.452;16.994;2022-11-02T00:20:22;37.33;;;17.27;;
75628;SDS011;64213;46.452;16.994;2022-11-02T00:23:24;40.40;;;16.80;;
75628;SDS011;64213;46.452;16.994;2022-11-02T00:26:26;39.97;;;17.60;;
75628;SDS011;64213;46.452;16.994;2022-11-02T00:29:29;38.97;;;18.00;;
75628;SDS011;64213;46.452;16.994;2022-11-02T00:32:34;42.17;;;17.40;;
75628;SDS011;64213;46.452;16.994;2022-11-02T00:35:36;35.53;;;17.20;;
75628;SDS011;64213;46.452;16.994;2022-11-02T00:38:39;34.30;;;16.27;;
75628;SDS011;64213;46.452;16.994;2022-11-02T00:41:41;35.63;;;16.17;;
75628;SDS011;64213;46.452;16.994;2022-11-02T00:44:43;40.50;;;17.55;;
75628;SDS011;64213;46.452;16.994;2022-11-02T00:47:45;41.92;;;16.60;;
75628;SDS011;64213;46.452;16.994;2022-11-02T00:50:47;36.90;;;16.52;;
75628;SDS011;64213;46.452;16.994;2022-11-02T00:53:49;38.50;;;16.37;;
75628;SDS011;64213;46.452;16.994;2022-11-02T00:56:51;30.48;;;15.10;;
75628;SDS011;64213;46.452;16.994;2022-11-02T00:59:53;34.65;;;16.00;;
75628;SDS011;64213;46.452;16.994;2022-11-02T01:02:58;35.83;;;16.02;;
75628;SDS011;64213;46.452;16.994;2022-11-02T01:06:12;35.58;;;15.82;;
75628;SDS011;64213;46.452;16.994;2022-11-02T01:09:16;33.63;;;15.77;;
75628;SDS011;64213;46.452;16.994;2022-11-02T01:12:18;29.35;;;14.73;;
75628;SDS011;64213;46.452;16.994;2022-11-02T01:15:20;37.35;;;16.77;;
75628;SDS011;64213;46.452;16.994;2022-11-02T01:18:22;34.67;;;15.00;;
75628;SDS011;64213;46.452;16.994;2022-11-02T01:21:24;35.17;;;15.82;;
75628;SDS011;64213;46.452;16.994;2022-11-02T01:24:27;36.03;;;16.17;;
75628;SDS011;64213;46.452;16.994;2022-11-02T01:27:30;37.17;;;15.38;;
75628;SDS011;64213;46.452;16.994;2022-11-02T01:30:32;34.47;;;15.70;;
75628;SDS011;64213;46.452;16.994;2022-11-02T01:33:34;35.95;;;15.05;;
75628;SDS011;64213;46.452;16.994;2022-11-02T01:36:36;34.65;;;15.07;;
75628;SDS011;64213;46.452;16.994;2022-11-02T01:39:38;35.70;;;15.03;;
75628;SDS011;64213;46.452;16.994;2022-11-02T01:42:40;36.30;;;15.88;;
75628;SDS011;64213;46.452;16.994;2022-11-02T01:45:42;33.28;;;14.85;;
75628;SDS011;64213;46.452;16.994;2022-11-02T01:48:46;34.65;;;14.35;;
75628;SDS011;64213;46.452;16.994;2022-11-02T01:52:07;34.17;;;14.48;;
75628;SDS011;64213;46.452;16.994;2022-11-02T01:55:15;32.57;;;14.17;;
75628;SDS011;64213;46.452;16.994;2022-11-02T01:58:20;30.10;;;14.75;;
75628;SDS011;64213;46.452;16.994;2022-11-02T02:01:22;34.80;;;15.15;;
75628;SDS011;64213;46.452;16.994;2022-11-02T02:04:26;33.63;;;15.35;;
75628;SDS011;64213;46.452;16.994;2022-11-02T02:07:29;36.55;;;15.35;;
75628;SDS011;64213;46.452;16.994;2022-11-02T02:10:33;32.80;;;14.70;;
75628;SDS011;64213;46.452;16.994;2022-11-02T02:13:36;32.85;;;14.43;;
75628;SDS011;64213;46.452;16.994;2022-11-02T02:26:43;35.57;;;13.50;;
75628;SDS011;64213;46.452;16.994;2022-11-02T02:33:04;36.75;;;15.50;;
75628;SDS011;64213;46.452;16.994;2022-11-02T02:36:33;36.20;;;14.05;;
75628;SDS011;64213;46.452;16.994;2022-11-02T02:39:50;33.95;;;14.15;;
75628;SDS011;64213;46.452;16.994;2022-11-02T02:43:09;36.17;;;13.47;;
75628;SDS011;64213;46.452;16.994;2022-11-02T02:46:32;33.00;;;13.73;;
75628;SDS011;64213;46.452;16.994;2022-11-02T02:49:51;33.40;;;13.82;;
75628;SDS011;64213;46.452;16.994;2022-11-02T02:52:57;34.45;;;14.07;;
75628;SDS011;64213;46.452;16.994;2022-11-02T02:56:03;33.50;;;14.77;;
75628;SDS011;64213;46.452;16.994;2022-11-02T02:59:07;35.33;;;14.17;;
75628;SDS011;64213;46.452;16.994;2022-11-02T03:02:19;33.10;;;13.00;;
75628;SDS011;64213;46.452;16.994;2022-11-02T03:05:27;33.33;;;14.85;;
75628;SDS011;64213;46.452;16.994;2022-11-02T03:08:39;32.63;;;14.35;;
75628;SDS011;64213;46.452;16.994;2022-11-02T03:12:22;33.53;;;14.40;;
75628;SDS011;64213;46.452;16.994;2022-11-02T03:21:58;33.10;;;14.63;;
75628;SDS011;64213;46.452;16.994;2022-11-02T03:38:00;34.65;;;14.50;;
75628;SDS011;64213;46.452;16.994;2022-11-02T03:41:08;32.50;;;13.20;;
75628;SDS011;64213;46.452;16.994;2022-11-02T03:44:13;31.35;;;14.05;;
75628;SDS011;64213;46.452;16.994;2022-11-02T03:47:20;32.80;;;13.37;;
75628;SDS011;64213;46.452;16.994;2022-11-02T03:50:25;35.83;;;14.32;;
75628;SDS011;64213;46.452;16.994;2022-11-02T03:56:48;28.90;;;14.00;;
75628;SDS011;64213;46.452;16.994;2022-11-02T04:00:04;29.80;;;13.93;;
75628;SDS011;64213;46.452;16.994;2022-11-02T04:03:16;31.67;;;14.27;;
75628;SDS011;64213;46.452;16.994;2022-11-02T04:06:21;30.58;;;13.73;;
75628;SDS011;64213;46.452;16.994;2022-11-02T04:09:24;32.80;;;14.05;;
75628;SDS011;64213;46.452;16.994;2022-11-02T04:12:26;30.67;;;12.45;;
75628;SDS011;64213;46.452;16.994;2022-11-02T04:15:54;29.17;;;12.98;;
75628;SDS011;64213;46.452;16.994;2022-11-02T04:18:56;28.37;;;13.13;;
75628;SDS011;64213;46.452;16.994;2022-11-02T04:22:17;29.60;;;13.18;;
75628;SDS011;64213;46.452;16.994;2022-11-02T04:25:38;31.15;;;13.85;;
75628;SDS011;64213;46.452;16.994;2022-11-02T04:28:41;33.17;;;13.55;;
75628;SDS011;64213;46.452;16.994;2022-11-02T04:31:43;32.33;;;14.38;;
75628;SDS011;64213;46.452;16.994;2022-11-02T04:34:44;31.23;;;13.37;;
75628;SDS011;64213;46.452;16.994;2022-11-02T04:37:46;32.80;;;13.68;;
75628;SDS011;64213;46.452;16.994;2022-11-02T04:41:17;33.63;;;14.15;;
75628;SDS011;64213;46.452;16.994;2022-11-02T04:44:39;29.30;;;13.07;;
75628;SDS011;64213;46.452;16.994;2022-11-02T04:47:41;31.65;;;13.70;;
75628;SDS011;64213;46.452;16.994;2022-11-02T04:50:43;33.07;;;13.77;;
75628;SDS011;64213;46.452;16.994;2022-11-02T04:53:46;33.28;;;13.38;;
75628;SDS011;64213;46.452;16.994;2022-11-02T04:56:49;29.75;;;13.57;;
75628;SDS011;64213;46.452;16.994;2022-11-02T04:59:51;31.30;;;13.60;;
75628;SDS011;64213;46.452;16.994;2022-11-02T05:02:53;33.85;;;13.65;;
75628;SDS011;64213;46.452;16.994;2022-11-02T05:05:55;29.73;;;13.67;;
75628;SDS011;64213;46.452;16.994;2022-11-02T05:08:57;30.40;;;12.98;;
75628;SDS011;64213;46.452;16.994;2022-11-02T05:11:59;32.38;;;14.60;;
75628;SDS011;64213;46.452;16.994;2022-11-02T05:15:02;27.20;;;12.35;;
75628;SDS011;64213;46.452;16.994;2022-11-02T05:18:05;32.45;;;13.82;;
75628;SDS011;64213;46.452;16.994;2022-11-02T05:21:08;31.60;;;13.43;;
75628;SDS011;64213;46.452;16.994;2022-11-02T05:24:11;32.25;;;13.13;;
75628;SDS011;64213;46.452;16.994;2022-11-02T05:27:13;28.33;;;13.52;;
75628;SDS011;64213;46.452;16.994;2022-11-02T05:30:16;30.52;;;12.63;;
75628;SDS011;64213;46.452;16.994;2022-11-02T05:33:18;30.55;;;12.77;;
75628;SDS011;64213;46.452;16.994;2022-11-02T05:36:21;27.80;;;11.23;;
75628;SDS011;64213;46.452;16.994;2022-11-02T05:39:23;34.22;;;14.80;;
75628;SDS011;64213;46.452;16.994;2022-11-02T05:42:25;32.75;;;13.30;;
75628;SDS011;64213;46.452;16.994;2022-11-02T05:45:27;32.05;;;14.20;;
75628;SDS011;64213;46.452;16.994;2022-11-02T05:48:30;31.95;;;14.82;;
75628;SDS011;64213;46.452;16.994;2022-11-02T05:51:33;32.07;;;14.20;;
75628;SDS011;64213;46.452;16.994;2022-11-02T05:54:35;30.88;;;14.02;;
75628;SDS011;64213;46.452;16.994;2022-11-02T05:57:37;34.50;;;14.60;;
75628;SDS011;64213;46.452;16.994;2022-11-02T06:00:39;33.13;;;14.25;;
75628;SDS011;64213;46.452;16.994;2022-11-02T06:03:41;32.22;;;13.68;;
75628;SDS011;64213;46.452;16.994;2022-11-02T06:06:43;33.30;;;14.07;;
75628;SDS011;64213;46.452;16.994;2022-11-02T06:09:46;34.95;;;14.00;;
75628;SDS011;64213;46.452;16.994;2022-11-02T06:12:53;38.40;;;15.68;;
75628;SDS011;64213;46.452;16.994;2022-11-02T06:15:59;33.70;;;15.23;;
75628;SDS011;64213;46.452;16.994;2022-11-02T06:19:01;35.50;;;15.88;;
75628;SDS011;64213;46.452;16.994;2022-11-02T06:22:03;35.23;;;14.27;;
75628;SDS011;64213;46.452;16.994;2022-11-02T06:25:06;33.33;;;13.82;;
75628;SDS011;64213;46.452;16.994;2022-11-02T06:28:09;35.05;;;14.77;;
75628;SDS011;64213;46.452;16.994;2022-11-02T06:31:11;37.90;;;14.25;;
75628;SDS011;64213;46.452;16.994;2022-11-02T06:34:13;35.17;;;14.50;;
75628;SDS011;64213;46.452;16.994;2022-11-02T06:37:15;30.57;;;13.63;;
75628;SDS011;64213;46.452;16.994;2022-11-02T06:40:18;34.88;;;13.62;;
75628;SDS011;64213;46.452;16.994;2022-11-02T06:43:24;40.53;;;19.45;;
75628;SDS011;64213;46.452;16.994;2022-11-02T06:46:27;47.35;;;22.83;;
75628;SDS011;64213;46.452;16.994;2022-11-02T06:49:29;56.58;;;26.75;;
75628;SDS011;64213;46.452;16.994;2022-11-02T06:52:31;33.50;;;15.77;;
75628;SDS011;64213;46.452;16.994;2022-11-02T06:55:33;34.08;;;14.98;;
75628;SDS011;64213;46.452;16.994;2022-11-02T06:58:35;32.97;;;14.32;;
75628;SDS011;64213;46.452;16.994;2022-11-02T07:01:37;31.37;;;13.73;;
75628;SDS011;64213;46.452;16.994;2022-11-02T07:04:40;28.12;;;13.43;;
75628;SDS011;64213;46.452;16.994;2022-11-02T07:07:42;30.00;;;13.90;;
75628;SDS011;64213;46.452;16.994;2022-11-02T07:10:44;37.30;;;15.60;;
75628;SDS011;64213;46.452;16.994;2022-11-02T07:13:46;30.00;;;13.57;;
75628;SDS011;64213;46.452;16.994;2022-11-02T07:16:48;29.42;;;13.90;;
75628;SDS011;64213;46.452;16.994;2022-11-02T07:19:50;31.67;;;14.35;;
75628;SDS011;64213;46.452;16.994;2022-11-02T07:22:53;31.63;;;13.83;;
75628;SDS011;64213;46.452;16.994;2022-11-02T07:26:00;27.33;;;12.18;;
75628;SDS011;64213;46.452;16.994;2022-11-02T07:29:03;27.20;;;13.13;;
75628;SDS011;64213;46.452;16.994;2022-11-02T07:32:24;27.37;;;12.77;;
75628;SDS011;64213;46.452;16.994;2022-11-02T07:35:26;29.60;;;12.82;;
75628;SDS011;64213;46.452;16.994;2022-11-02T07:38:28;28.63;;;11.80;;
75628;SDS011;64213;46.452;16.994;2022-11-02T07:41:30;29.87;;;12.05;;
75628;SDS011;64213;46.452;16.994;2022-11-02T07:44:32;28.00;;;12.57;;
75628;SDS011;64213;46.452;16.994;2022-11-02T07:47:40;30.60;;;13.00;;
75628;SDS011;64213;46.452;16.994;2022-11-02T07:50:43;31.90;;;12.70;;
75628;SDS011;64213;46.452;16.994;2022-11-02T07:53:45;25.27;;;12.07;;
75628;SDS011;64213;46.452;16.994;2022-11-02T07:56:47;25.77;;;12.00;;
75628;SDS011;64213;46.452;16.994;2022-11-02T07:59:50;24.55;;;12.10;;
75628;SDS011;64213;46.452;16.994;2022-11-02T08:02:55;27.45;;;11.88;;
75628;SDS011;64213;46.452;16.994;2022-11-02T08:06:01;28.55;;;13.20;;
75628;SDS011;64213;46.452;16.994;2022-11-02T08:09:04;25.30;;;12.20;;
75628;SDS011;64213;46.452;16.994;2022-11-02T08:12:06;25.67;;;12.32;;
75628;SDS011;64213;46.452;16.994;2022-11-02T08:15:08;26.45;;;11.98;;
75628;SDS011;64213;46.452;16.994;2022-11-02T08:18:12;25.27;;;12.73;;
75628;SDS011;64213;46.452;16.994;2022-11-02T08:21:15;26.48;;;11.65;;
75628;SDS011;64213;46.452;16.994;2022-11-02T08:24:17;25.53;;;12.17;;
75628;SDS011;64213;46.452;16.994;2022-11-02T08:27:19;26.00;;;12.50;;
75628;SDS011;64213;46.452;16.994;2022-11-02T08:30:21;28.73;;;12.30;;
75628;SDS011;64213;46.452;16.994;2022-11-02T08:33:23;25.05;;;11.55;;
75628;SDS011;64213;46.452;16.994;2022-11-02T08:36:25;24.42;;;11.88;;
75628;SDS011;64213;46.452;16.994;2022-11-02T08:39:27;23.23;;;12.27;;
75628;SDS011;64213;46.452;16.994;2022-11-02T08:42:30;27.95;;;12.40;;
75628;SDS011;64213;46.452;16.994;2022-11-02T08:45:32;26.33;;;12.85;;
75628;SDS011;64213;46.452;16.994;2022-11-02T08:48:55;25.77;;;12.55;;
75628;SDS011;64213;46.452;16.994;2022-11-02T08:51:57;23.95;;;12.20;;
75628;SDS011;64213;46.452;16.994;2022-11-02T08:55:00;26.10;;;12.77;;
75628;SDS011;64213;46.452;16.994;2022-11-02T08:58:02;27.08;;;12.18;;
75628;SDS011;64213;46.452;16.994;2022-11-02T09:01:04;25.52;;;12.35;;
75628;SDS011;64213;46.452;16.994;2022-11-02T09:04:06;25.33;;;12.10;;
75628;SDS011;64213;46.452;16.994;2022-11-02T09:07:08;24.05;;;12.73;;
75628;SDS011;64213;46.452;16.994;2022-11-02T09:10:11;23.40;;;12.43;;
75628;SDS011;64213;46.452;16.994;2022-11-02T09:13:13;25.67;;;12.85;;
75628;SDS011;64213;46.452;16.994;2022-11-02T09:16:16;26.05;;;12.65;;
75628;SDS011;64213;46.452;16.994;2022-11-02T09:19:18;24.65;;;12.35;;
75628;SDS011;64213;46.452;16.994;2022-11-02T09:22:20;25.42;;;12.55;;
75628;SDS011;64213;46.452;16.994;2022-11-02T09:25:22;28.70;;;13.23;;
75628;SDS011;64213;46.452;16.994;2022-11-02T09:28:25;24.83;;;12.85;;
75628;SDS011;64213;46.452;16.994;2022-11-02T09:31:27;27.17;;;12.45;;
75628;SDS011;64213;46.452;16.994;2022-11-02T09:34:30;28.55;;;12.25;;
75628;SDS011;64213;46.452;16.994;2022-11-02T09:37:32;23.50;;;12.43;;
75628;SDS011;64213;46.452;16.994;2022-11-02T09:40:35;23.17;;;12.03;;
75628;SDS011;64213;46.452;16.994;2022-11-02T09:47:01;23.35;;;11.98;;
75628;SDS011;64213;46.452;16.994;2022-11-02T09:50:24;20.73;;;10.52;;
75628;SDS011;64213;46.452;16.994;2022-11-02T09:57:14;20.37;;;10.63;;
75628;SDS011;64213;46.452;16.994;2022-11-02T10:00:39;19.15;;;10.20;;
75628;SDS011;64213;46.452;16.994;2022-11-02T10:07:13;18.58;;;10.00;;
75628;SDS011;64213;46.452;16.994;2022-11-02T10:16:35;16.73;;;9.73;;
75628;SDS011;64213;46.452;16.994;2022-11-02T10:19:48;16.98;;;8.93;;
75628;SDS011;64213;46.452;16.994;2022-11-02T10:22:59;15.18;;;8.90;;
75628;SDS011;64213;46.452;16.994;2022-11-02T10:26:18;19.77;;;8.75;;
75628;SDS011;64213;46.452;16.994;2022-11-02T10:33:06;13.60;;;7.93;;
75628;SDS011;64213;46.452;16.994;2022-11-02T10:36:18;15.68;;;8.35;;
75628;SDS011;64213;46.452;16.994;2022-11-02T10:42:58;14.75;;;7.30;;
75628;SDS011;64213;46.452;16.994;2022-11-02T10:53:13;14.23;;;7.53;;
75628;SDS011;64213;46.452;16.994;2022-11-02T10:56:37;13.18;;;7.07;;
75628;SDS011;64213;46.452;16.994;2022-11-02T10:59:41;12.75;;;6.50;;
75628;SDS011;64213;46.452;16.994;2022-11-02T11:02:43;12.47;;;6.17;;
75628;SDS011;64213;46.452;16.994;2022-11-02T11:08:50;12.55;;;6.28;;
75628;SDS011;64213;46.452;16.994;2022-11-02T11:11:58;13.00;;;6.25;;
75628;SDS011;64213;46.452;16.994;2022-11-02T11:15:03;13.77;;;6.40;;
75628;SDS011;64213;46.452;16.994;2022-11-02T11:18:27;13.70;;;6.30;;
75628;SDS011;64213;46.452;16.994;2022-11-02T11:21:50;12.48;;;5.47;;
75628;SDS011;64213;46.452;16.994;2022-11-02T11:24:53;13.75;;;5.70;;
75628;SDS011;64213;46.452;16.994;2022-11-02T11:28:25;13.25;;;4.97;;
75628;SDS011;64213;46.452;16.994;2022-11-02T11:31:29;12.35;;;5.78;;
75628;SDS011;64213;46.452;16.994;2022-11-02T11:34:31;14.40;;;5.30;;
75628;SDS011;64213;46.452;16.994;2022-11-02T11:37:36;12.23;;;5.07;;
75628;SDS011;64213;46.452;16.994;2022-11-02T11:40:51;13.35;;;5.22;;
75628;SDS011;64213;46.452;16.994;2022-11-02T11:43:56;13.00;;;5.30;;
75628;SDS011;64213;46.452;16.994;2022-11-02T11:46:59;14.93;;;5.37;;
75628;SDS011;64213;46.452;16.994;2022-11-02T11:50:05;12.50;;;5.17;;
75628;SDS011;64213;46.452;16.994;2022-11-02T11:53:30;12.57;;;5.60;;
75628;SDS011;64213;46.452;16.994;2022-11-02T11:56:32;12.20;;;5.32;;
75628;SDS011;64213;46.452;16.994;2022-11-02T12:02:43;13.93;;;5.90;;
75628;SDS011;64213;46.452;16.994;2022-11-02T12:06:12;14.03;;;5.87;;
75628;SDS011;64213;46.452;16.994;2022-11-02T12:09:39;17.35;;;6.12;;
75628;SDS011;64213;46.452;16.994;2022-11-02T12:16:59;13.52;;;6.37;;
75628;SDS011;64213;46.452;16.994;2022-11-02T12:30:19;20.92;;;7.22;;
75628;SDS011;64213;46.452;16.994;2022-11-02T12:43:47;15.55;;;7.40;;
75628;SDS011;64213;46.452;16.994;2022-11-02T12:53:57;19.62;;;9.00;;
75628;SDS011;64213;46.452;16.994;2022-11-02T12:57:01;17.90;;;7.20;;
75628;SDS011;64213;46.452;16.994;2022-11-02T13:00:06;27.02;;;12.82;;
75628;SDS011;64213;46.452;16.994;2022-11-02T13:06:58;21.98;;;10.25;;
75628;SDS011;64213;46.452;16.994;2022-11-02T13:10:20;27.92;;;12.60;;
75628;SDS011;64213;46.452;16.994;2022-11-02T13:13:34;21.13;;;9.93;;
75628;SDS011;64213;46.452;16.994;2022-11-02T13:16:42;19.60;;;8.27;;
75628;SDS011;64213;46.452;16.994;2022-11-02T13:20:12;18.75;;;8.20;;
75628;SDS011;64213;46.452;16.994;2022-11-02T13:23:21;19.10;;;7.85;;
75628;SDS011;64213;46.452;16.994;2022-11-02T13:26:36;17.08;;;6.97;;
75628;SDS011;64213;46.452;16.994;2022-11-02T13:29:48;14.80;;;7.20;;
75628;SDS011;64213;46.452;16.994;2022-11-02T13:32:54;14.87;;;6.62;;
75628;SDS011;64213;46.452;16.994;2022-11-02T13:36:00;17.12;;;7.60;;
75628;SDS011;64213;46.452;16.994;2022-11-02T13:39:14;16.02;;;6.78;;
75628;SDS011;64213;46.452;16.994;2022-11-02T13:42:37;16.05;;;7.30;;
75628;SDS011;64213;46.452;16.994;2022-11-02T13:52:49;17.37;;;7.65;;
75628;SDS011;64213;46.452;16.994;2022-11-02T13:56:01;17.65;;;7.03;;
75628;SDS011;64213;46.452;16.994;2022-11-02T13:59:16;19.05;;;7.32;;
75628;SDS011;64213;46.452;16.994;2022-11-02T14:02:22;16.10;;;7.33;;
75628;SDS011;64213;46.452;16.994;2022-11-02T14:05:34;18.62;;;7.82;;
75628;SDS011;64213;46.452;16.994;2022-11-02T14:11:50;17.42;;;7.50;;
75628;SDS011;64213;46.452;16.994;2022-11-02T14:18:14;22.60;;;10.37;;
75628;SDS011;64213;46.452;16.994;2022-11-02T14:21:41;20.23;;;9.32;;
75628;SDS011;64213;46.452;16.994;2022-11-02T14:25:08;16.55;;;7.60;;
75628;SDS011;64213;46.452;16.994;2022-11-02T14:31:27;15.27;;;7.37;;
75628;SDS011;64213;46.452;16.994;2022-11-02T14:48:23;17.52;;;7.12;;
75628;SDS011;64213;46.452;16.994;2022-11-02T14:51:32;18.03;;;8.10;;
75628;SDS011;64213;46.452;16.994;2022-11-02T14:54:46;18.67;;;8.98;;
75628;SDS011;64213;46.452;16.994;2022-11-02T15:00:56;16.62;;;7.97;;
75628;SDS011;64213;46.452;16.994;2022-11-02T15:04:04;20.95;;;8.38;;
75628;SDS011;64213;46.452;16.994;2022-11-02T15:07:14;20.17;;;8.33;;
75628;SDS011;64213;46.452;16.994;2022-11-02T15:13:44;27.13;;;13.35;;
75628;SDS011;64213;46.452;16.994;2022-11-02T15:16:49;21.17;;;9.32;;
75628;SDS011;64213;46.452;16.994;2022-11-02T15:26:26;23.50;;;11.07;;
75628;SDS011;64213;46.452;16.994;2022-11-02T15:32:38;22.50;;;10.40;;
75628;SDS011;64213;46.452;16.994;2022-11-02T15:35:45;22.87;;;11.15;;
75628;SDS011;64213;46.452;16.994;2022-11-02T15:38:49;23.63;;;11.07;;
75628;SDS011;64213;46.452;16.994;2022-11-02T15:42:03;25.25;;;11.25;;
75628;SDS011;64213;46.452;16.994;2022-11-02T15:49:19;25.75;;;11.10;;
75628;SDS011;64213;46.452;16.994;2022-11-02T15:59:33;27.08;;;11.75;;
75628;SDS011;64213;46.452;16.994;2022-11-02T16:02:45;24.98;;;11.70;;
75628;SDS011;64213;46.452;16.994;2022-11-02T16:05:50;21.77;;;11.43;;
75628;SDS011;64213;46.452;16.994;2022-11-02T16:08:54;24.25;;;11.95;;
75628;SDS011;64213;46.452;16.994;2022-11-02T16:12:06;28.47;;;12.60;;
75628;SDS011;64213;46.452;16.994;2022-11-02T16:15:17;22.77;;;10.32;;
75628;SDS011;64213;46.452;16.994;2022-11-02T16:18:33;26.95;;;13.93;;
75628;SDS011;64213;46.452;16.994;2022-11-02T16:21:37;31.55;;;15.32;;
75628;SDS011;64213;46.452;16.994;2022-11-02T16:24:40;33.75;;;17.77;;
75628;SDS011;64213;46.452;16.994;2022-11-02T16:27:47;33.73;;;14.97;;
75628;SDS011;64213;46.452;16.994;2022-11-02T16:31:00;29.33;;;13.68;;
75628;SDS011;64213;46.452;16.994;2022-11-02T16:34:15;29.80;;;15.55;;
75628;SDS011;64213;46.452;16.994;2022-11-02T16:37:38;33.08;;;15.73;;
75628;SDS011;64213;46.452;16.994;2022-11-02T16:40:41;33.10;;;16.00;;
75628;SDS011;64213;46.452;16.994;2022-11-02T16:43:47;35.43;;;16.03;;
75628;SDS011;64213;46.452;16.994;2022-11-02T16:46:52;33.90;;;16.85;;
75628;SDS011;64213;46.452;16.994;2022-11-02T16:50:18;29.02;;;15.07;;
75628;SDS011;64213;46.452;16.994;2022-11-02T16:53:26;31.92;;;13.25;;
75628;SDS011;64213;46.452;16.994;2022-11-02T16:56:31;23.38;;;10.85;;
75628;SDS011;64213;46.452;16.994;2022-11-02T16:59:34;24.87;;;11.43;;
75628;SDS011;64213;46.452;16.994;2022-11-02T17:02:41;29.98;;;11.07;;
75628;SDS011;64213;46.452;16.994;2022-11-02T17:05:46;23.40;;;12.77;;
75628;SDS011;64213;46.452;16.994;2022-11-02T17:08:52;34.63;;;20.00;;
75628;SDS011;64213;46.452;16.994;2022-11-02T17:11:57;34.97;;;23.12;;
75628;SDS011;64213;46.452;16.994;2022-11-02T17:15:07;22.47;;;12.87;;
75628;SDS011;64213;46.452;16.994;2022-11-02T17:21:26;22.77;;;13.57;;
75628;SDS011;64213;46.452;16.994;2022-11-02T17:24:31;22.92;;;11.65;;
75628;SDS011;64213;46.452;16.994;2022-11-02T17:27:37;25.95;;;11.50;;
75628;SDS011;64213;46.452;16.994;2022-11-02T17:30:44;30.20;;;12.57;;
75628;SDS011;64213;46.452;16.994;2022-11-02T17:33:51;27.83;;;13.32;;
75628;SDS011;64213;46.452;16.994;2022-11-02T17:36:54;26.77;;;13.40;;
75628;SDS011;64213;46.452;16.994;2022-11-02T17:40:00;26.55;;;12.25;;
75628;SDS011;64213;46.452;16.994;2022-11-02T17:43:05;28.65;;;13.93;;
75628;SDS011;64213;46.452;16.994;2022-11-02T17:46:09;26.40;;;13.30;;
75628;SDS011;64213;46.452;16.994;2022-11-02T17:49:12;27.05;;;12.55;;
75628;SDS011;64213;46.452;16.994;2022-11-02T17:52:16;26.10;;;12.35;;
75628;SDS011;64213;46.452;16.994;2022-11-02T17:55:21;27.98;;;12.37;;
75628;SDS011;64213;46.452;16.994;2022-11-02T17:58:29;29.40;;;14.63;;
75628;SDS011;64213;46.452;16.994;2022-11-02T18:01:31;29.80;;;14.53;;
75628;SDS011;64213;46.452;16.994;2022-11-02T18:04:35;30.08;;;14.70;;
75628;SDS011;64213;46.452;16.994;2022-11-02T18:07:39;26.45;;;14.82;;
75628;SDS011;64213;46.452;16.994;2022-11-02T18:10:45;26.35;;;13.77;;
75628;SDS011;64213;46.452;16.994;2022-11-02T18:13:49;29.05;;;15.40;;
75628;SDS011;64213;46.452;16.994;2022-11-02T18:16:54;29.27;;;15.50;;
75628;SDS011;64213;46.452;16.994;2022-11-02T18:19:59;29.27;;;14.43;;
75628;SDS011;64213;46.452;16.994;2022-11-02T18:23:02;28.20;;;14.65;;
75628;SDS011;64213;46.452;16.994;2022-11-02T18:26:06;29.80;;;14.23;;
75628;SDS011;64213;46.452;16.994;2022-11-02T18:29:12;29.90;;;14.45;;
75628;SDS011;64213;46.452;16.994;2022-11-02T18:32:27;33.23;;;16.07;;
75628;SDS011;64213;46.452;16.994;2022-11-02T18:35:31;43.53;;;20.83;;
75628;SDS011;64213;46.452;16.994;2022-11-02T18:38:34;41.78;;;20.40;;
75628;SDS011;64213;46.452;16.994;2022-11-02T18:41:41;38.28;;;18.30;;
75628;SDS011;64213;46.452;16.994;2022-11-02T18:44:44;39.45;;;17.70;;
75628;SDS011;64213;46.452;16.994;2022-11-02T18:47:48;36.23;;;16.27;;
75628;SDS011;64213;46.452;16.994;2022-11-02T18:50:52;35.13;;;16.30;;
75628;SDS011;64213;46.452;16.994;2022-11-02T18:53:56;36.63;;;17.85;;
75628;SDS011;64213;46.452;16.994;2022-11-02T18:57:01;37.72;;;17.52;;
75628;SDS011;64213;46.452;16.994;2022-11-02T19:00:06;35.72;;;19.25;;
75628;SDS011;64213;46.452;16.994;2022-11-02T19:03:11;32.70;;;17.07;;
75628;SDS011;64213;46.452;16.994;2022-11-02T19:06:15;35.10;;;16.50;;
75628;SDS011;64213;46.452;16.994;2022-11-02T19:09:39;31.60;;;16.10;;
75628;SDS011;64213;46.452;16.994;2022-11-02T19:12:42;33.88;;;16.55;;
75628;SDS011;64213;46.452;16.994;2022-11-02T19:15:45;33.90;;;17.15;;
75628;SDS011;64213;46.452;16.994;2022-11-02T19:18:48;30.10;;;15.40;;
75628;SDS011;64213;46.452;16.994;2022-11-02T19:21:52;38.95;;;15.20;;
75628;SDS011;64213;46.452;16.994;2022-11-02T19:24:56;32.17;;;15.38;;
75628;SDS011;64213;46.452;16.994;2022-11-02T19:27:59;30.23;;;15.70;;
75628;SDS011;64213;46.452;16.994;2022-11-02T19:31:03;31.67;;;16.05;;
75628;SDS011;64213;46.452;16.994;2022-11-02T19:34:07;36.13;;;17.23;;
75628;SDS011;64213;46.452;16.994;2022-11-02T19:37:11;35.78;;;19.30;;
75628;SDS011;64213;46.452;16.994;2022-11-02T19:40:14;45.97;;;24.37;;
75628;SDS011;64213;46.452;16.994;2022-11-02T19:43:17;42.95;;;20.70;;
75628;SDS011;64213;46.452;16.994;2022-11-02T19:46:25;33.13;;;17.23;;
75628;SDS011;64213;46.452;16.994;2022-11-02T19:49:30;36.37;;;17.70;;
75628;SDS011;64213;46.452;16.994;2022-11-02T19:52:34;39.83;;;18.12;;
75628;SDS011;64213;46.452;16.994;2022-11-02T19:55:51;42.60;;;19.62;;
75628;SDS011;64213;46.452;16.994;2022-11-02T19:58:55;35.63;;;16.48;;
75628;SDS011;64213;46.452;16.994;2022-11-02T20:02:03;35.08;;;16.90;;
75628;SDS011;64213;46.452;16.994;2022-11-02T20:05:09;35.37;;;17.27;;
75628;SDS011;64213;46.452;16.994;2022-11-02T20:08:31;36.40;;;17.87;;
75628;SDS011;64213;46.452;16.994;2022-11-02T20:11:39;36.28;;;20.17;;
75628;SDS011;64213;46.452;16.994;2022-11-02T20:14:47;35.13;;;18.10;;
75628;SDS011;64213;46.452;16.994;2022-11-02T20:17:52;33.55;;;17.65;;
75628;SDS011;64213;46.452;16.994;2022-11-02T20:21:19;36.47;;;18.50;;
75628;SDS011;64213;46.452;16.994;2022-11-02T20:24:35;34.97;;;17.17;;
75628;SDS011;64213;46.452;16.994;2022-11-02T20:27:40;38.72;;;18.70;;
75628;SDS011;64213;46.452;16.994;2022-11-02T20:30:47;35.83;;;17.75;;
75628;SDS011;64213;46.452;16.994;2022-11-02T20:33:53;32.00;;;17.45;;
75628;SDS011;64213;46.452;16.994;2022-11-02T20:36:57;34.80;;;17.47;;
75628;SDS011;64213;46.452;16.994;2022-11-02T20:40:06;34.33;;;17.83;;
75628;SDS011;64213;46.452;16.994;2022-11-02T20:43:12;36.33;;;18.75;;
75628;SDS011;64213;46.452;16.994;2022-11-02T20:46:17;36.33;;;18.52;;
75628;SDS011;64213;46.452;16.994;2022-11-02T20:49:43;40.40;;;19.85;;